Abel Matutes — ECPD — position and weather

sailwx.info

Track history (hours):
 
Tides and Currents Weather Stations Pressure Air Temp Water Temp Dewpoint Dewpoint Depression Visibility Wind Speed Wind Dir Waves Ship Positions

Abel Matutes

Last reported at 2018-Feb-23 20:25 UTC. Time now 2018-Feb-23 20:43 UTC.
Position N 41°21' E 002°10'.

Length 190 m; draft 5.5 m.

Type: Passenger vessel. MMSI: 224402000.

Date/timePositionNaut miles runAvg speedWind from/ knotsBaromVisibWave heightAir tempDewpointWater temp
2018-Feb-23 20:25N 41°21' E 002°10'0 0.0
2018-Feb-23 20:00N 41°21' E 002°10'0 0.0
2018-Feb-23 19:29N 41°21' E 002°10'0 0.0
2018-Feb-23 19:00N 41°21' E 002°10'1 2.8
2018-Feb-23 18:31N 41°20' E 002°10'4 7.7
2018-Feb-23 18:00N 41°16' E 002°11'1019.5
2018-Feb-23 17:30N 41°06' E 002°12'9619.7
2018-Feb-23 12:36N 39°30' E 002°22'320.1
2018-Feb-23 12:28N 39°28' E 002°24'816.4
2018-Feb-23 11:59N 39°28' E 002°35'510.0
2018-Feb-23 11:30N 39°33' E 002°38'0 0.0
2018-Feb-23 10:59N 39°33' E 002°38'0 0.0
2018-Feb-23 10:30N 39°33' E 002°38'0 0.0
2018-Feb-23 10:00N 39°33' E 002°38'0 0.0
2018-Feb-23 09:30N 39°33' E 002°38'0 0.0
2018-Feb-23 08:59N 39°33' E 002°38'0 0.0
2018-Feb-23 08:26N 39°33' E 002°38'0 0.0
2018-Feb-23 07:59N 39°33' E 002°38'0 0.0
2018-Feb-23 07:28N 39°33' E 002°38'0 0.0
2018-Feb-23 06:55N 39°33' E 002°38'0 0.0
2018-Feb-23 06:28N 39°33' E 002°38'0 0.0
2018-Feb-23 06:00N 39°33' E 002°38'0 0.0
2018-Feb-23 05:30N 39°33' E 002°38'1 2.5
2018-Feb-23 05:00N 39°31' E 002°38'917.3
2018-Feb-23 04:29N 39°26' E 002°29'9518.6
2018-Feb-22 23:22N 40°60' E 002°12'719.9
2018-Feb-22 23:00N 41°07' E 002°12'1020.3
2018-Feb-22 22:30N 41°17' E 002°11'4 8.1
2018-Feb-22 22:00N 41°21' E 002°10'0 0.1
2018-Feb-22 21:29N 41°21' E 002°10'0 0.0
2018-Feb-22 20:58N 41°21' E 002°10'0 0.0
2018-Feb-22 20:28N 41°21' E 002°10'0 0.0
2018-Feb-22 19:58N 41°21' E 002°10'0 0.0
2018-Feb-22 19:30N 41°21' E 002°10'0 0.0
2018-Feb-22 19:00N 41°21' E 002°10'2 3.5
2018-Feb-22 18:30N 41°19' E 002°10'4 7.5
2018-Feb-22 18:00N 41°16' E 002°11'917.8
2018-Feb-22 17:30N 41°07' E 002°11'9919.6
2018-Feb-22 12:28N 39°28' E 002°25'816.7
2018-Feb-22 11:58N 39°29' E 002°35'4 7.7
2018-Feb-22 11:29N 39°33' E 002°38'0 0.0
2018-Feb-22 10:59N 39°33' E 002°38'0 0.0
2018-Feb-22 10:29N 39°33' E 002°38'0 0.0
2018-Feb-22 09:59N 39°33' E 002°38'0 0.0
2018-Feb-22 09:28N 39°33' E 002°38'0 0.0
2018-Feb-22 08:58N 39°33' E 002°38'0 0.0
2018-Feb-22 08:28N 39°33' E 002°38'0 0.0
2018-Feb-22 08:00N 39°33' E 002°38'0 0.0
2018-Feb-22 07:30N 39°33' E 002°38'0 0.0
2018-Feb-22 07:00N 39°33' E 002°38'0 0.0
2018-Feb-22 06:29N 39°33' E 002°38'0 0.0
2018-Feb-22 05:59N 39°33' E 002°38'0 0.0
2018-Feb-22 05:30N 39°33' E 002°38'1 1.8
2018-Feb-22 05:00N 39°33' E 002°39'1019.3
2018-Feb-22 04:30N 39°26' E 002°30'9419.1
2018-Feb-21 23:33N 40°59' E 002°12'219.1
2018-Feb-21 23:27N 41°01' E 002°12'919.4
2018-Feb-21 23:00N 41°10' E 002°11'918.5
2018-Feb-21 22:30N 41°19' E 002°10'2 3.5
2018-Feb-21 21:59N 41°21' E 002°10'0 0.0
2018-Feb-21 21:28N 41°21' E 002°10'0 0.0
2018-Feb-21 20:58N 41°21' E 002°10'0 0.0
2018-Feb-21 20:28N 41°21' E 002°10'0 0.0
2018-Feb-21 20:00N 41°21' E 002°10'0 0.0
2018-Feb-21 19:30N 41°21' E 002°10'1 1.4
2018-Feb-21 19:00N 41°20' E 002°10'613.1
2018-Feb-21 18:30N 41°14' E 002°12'1018.9
2018-Feb-21 18:00N 41°04' E 002°12'9617.8
2018-Feb-21 12:35N 39°29' E 002°23'220.9
2018-Feb-21 12:30N 39°28' E 002°25'917.4
2018-Feb-21 12:00N 39°30' E 002°36'3 5.7
2018-Feb-21 11:30N 39°33' E 002°38'0 0.0
2018-Feb-21 10:56N 39°33' E 002°38'0 0.0
2018-Feb-21 10:29N 39°33' E 002°38'0 0.0
2018-Feb-21 09:59N 39°33' E 002°38'0 0.0
2018-Feb-21 09:29N 39°33' E 002°38'0 0.0
2018-Feb-21 08:58N 39°33' E 002°38'0 0.0
2018-Feb-21 08:28N 39°33' E 002°38'0 0.0
2018-Feb-21 07:58N 39°33' E 002°38'0 0.0
2018-Feb-21 07:30N 39°33' E 002°38'0 0.0
2018-Feb-21 07:00N 39°33' E 002°38'0 0.0
2018-Feb-21 06:30N 39°33' E 002°38'0 0.0
2018-Feb-21 05:59N 39°33' E 002°38'0 0.0
2018-Feb-21 05:30N 39°33' E 002°38'1 2.1
2018-Feb-21 05:00N 39°32' E 002°38'917.6
2018-Feb-21 04:30N 39°26' E 002°30'9518.5
2018-Feb-20 23:21N 41°00' E 002°12'719.2
2018-Feb-20 23:00N 41°07' E 002°12'1019.7
2018-Feb-20 22:30N 41°17' E 002°11'4 8.5
2018-Feb-20 22:00N 41°21' E 002°10'0 0.5
2018-Feb-20 21:30N 41°21' E 002°10'0 0.0
2018-Feb-20 21:00N 41°21' E 002°10'0 0.0
2018-Feb-20 20:29N 41°21' E 002°10'0 0.0
2018-Feb-20 19:59N 41°21' E 002°10'0 0.0
2018-Feb-20 19:29N 41°21' E 002°10'0 0.0
2018-Feb-20 18:58N 41°21' E 002°10'0 0.1
2018-Feb-20 18:31N 41°21' E 002°10'4 8.6
2018-Feb-20 18:01N 41°17' E 002°11'1220.7
2018-Feb-20 17:27N 41°05' E 002°12'9620.0
2018-Feb-20 12:38N 39°29' E 002°23'219.6
2018-Feb-20 12:30N 39°28' E 002°26'815.7
2018-Feb-20 11:59N 39°29' E 002°36'4 7.5
2018-Feb-20 11:30N 39°33' E 002°38'0 0.0
2018-Feb-20 10:55N 39°33' E 002°38'0 0.0
2018-Feb-20 10:30N 39°33' E 002°38'0 0.0
2018-Feb-20 10:00N 39°33' E 002°38'0 0.0
2018-Feb-20 09:30N 39°33' E 002°38'0 0.0
2018-Feb-20 08:59N 39°33' E 002°38'0 0.0
2018-Feb-20 08:29N 39°33' E 002°38'0 0.0
2018-Feb-20 07:59N 39°33' E 002°38'0 0.0
2018-Feb-20 07:28N 39°33' E 002°38'0 0.0
2018-Feb-20 07:00N 39°33' E 002°38'0 0.0
2018-Feb-20 06:28N 39°33' E 002°38'0 0.0
2018-Feb-20 05:58N 39°33' E 002°38'0 0.0
2018-Feb-20 05:30N 39°33' E 002°38'2 3.1
2018-Feb-20 05:00N 39°31' E 002°38'917.6
2018-Feb-20 04:30N 39°26' E 002°29'9818.7
2018-Feb-19 23:14N 41°03' E 002°12'420.0
2018-Feb-19 23:00N 41°08' E 002°12'1020.1
2018-Feb-19 22:30N 41°18' E 002°10'3 6.1
2018-Feb-19 21:58N 41°21' E 002°10'0 0.0
2018-Feb-19 21:23N 41°21' E 002°10'0 0.0
2018-Feb-19 20:59N 41°21' E 002°10'0 0.0
2018-Feb-19 20:29N 41°21' E 002°10'0 0.0
2018-Feb-19 19:58N 41°21' E 002°10'0 0.0
2018-Feb-19 19:28N 41°21' E 002°10'0 0.0
2018-Feb-19 19:00N 41°21' E 002°10'0 0.0
2018-Feb-19 18:29N 41°21' E 002°10'0 0.0
2018-Feb-19 17:47N 41°21' E 002°10'0 0.0
2018-Feb-19 17:20N 41°21' E 002°10'0 0.0
2018-Feb-19 16:53N 41°21' E 002°10'2 5.5
2018-Feb-19 16:30N 41°19' E 002°11'3 5.9
2018-Feb-19 15:58N 41°22' E 002°11'0 0.1
2018-Feb-19 15:28N 41°22' E 002°11'0 0.0
2018-Feb-19 15:00N 41°22' E 002°11'0 0.0
2018-Feb-19 14:30N 41°22' E 002°11'0 0.0
2018-Feb-19 14:00N 41°22' E 002°11'0 0.0
2018-Feb-19 13:29N 41°22' E 002°11'0 0.0
2018-Feb-19 12:59N 41°22' E 002°11'0 0.0
2018-Feb-19 12:23N 41°22' E 002°11'0 0.1
2018-Feb-19 10:36N 41°22' E 002°11'0 0.0
2018-Feb-19 10:30N 41°22' E 002°11'0 0.0
2018-Feb-19 10:01N 41°22' E 002°11'0 0.0
2018-Feb-19 09:31N 41°22' E 002°11'0 0.0
2018-Feb-19 09:01N 41°22' E 002°11'0 0.0
2018-Feb-19 01:54N 41°22' E 002°11'0 0.0
2018-Feb-19 01:31N 41°22' E 002°11'0 0.0
2018-Feb-19 01:01N 41°22' E 002°11'0 0.0
2018-Feb-19 00:31N 41°22' E 002°11'0 0.0
2018-Feb-19 00:01N 41°22' E 002°11'0 0.0
2018-Feb-18 23:31N 41°22' E 002°11'0 0.0
2018-Feb-18 23:00N 41°22' E 002°11'0 0.0
2018-Feb-18 22:31N 41°22' E 002°11'0 0.0
2018-Feb-18 22:00N 41°22' E 002°11'0 0.0
2018-Feb-18 21:31N 41°22' E 002°11'0 0.0
2018-Feb-18 21:01N 41°22' E 002°11'0 0.0
2018-Feb-18 20:31N 41°22' E 002°11'0 0.0
2018-Feb-18 20:01N 41°22' E 002°11'0 0.0
2018-Feb-18 19:31N 41°22' E 002°11'0 0.0
2018-Feb-18 19:01N 41°22' E 002°11'0 0.0
2018-Feb-18 18:31N 41°22' E 002°11'0 0.0
2018-Feb-18 18:01N 41°22' E 002°11'0 0.0
2018-Feb-18 17:31N 41°22' E 002°11'0 0.0
2018-Feb-18 17:01N 41°22' E 002°11'0 0.0
2018-Feb-18 16:31N 41°22' E 002°11'0 0.0
2018-Feb-18 16:01N 41°22' E 002°11'0 0.0
2018-Feb-18 15:30N 41°22' E 002°11'0 0.0
2018-Feb-18 15:01N 41°22' E 002°11'0 0.0
2018-Feb-18 14:31N 41°22' E 002°11'0 0.0
2018-Feb-18 14:01N 41°22' E 002°11'0 0.0
2018-Feb-18 13:30N 41°22' E 002°11'0 0.0
2018-Feb-18 13:01N 41°22' E 002°11'0 0.0
2018-Feb-18 12:30N 41°22' E 002°11'0 0.0
2018-Feb-18 12:01N 41°22' E 002°11'0 0.0
2018-Feb-18 11:30N 41°22' E 002°11'0 0.0
2018-Feb-18 11:01N 41°22' E 002°11'0 0.0
2018-Feb-18 10:30N 41°22' E 002°11'0 0.0
2018-Feb-18 10:01N 41°22' E 002°11'0 0.0
2018-Feb-18 09:31N 41°22' E 002°11'0 0.0
2018-Feb-18 09:01N 41°22' E 002°11'0 0.0
2018-Feb-18 08:30N 41°22' E 002°11'0 0.0
2018-Feb-18 08:01N 41°22' E 002°11'0 0.0
2018-Feb-18 07:30N 41°22' E 002°11'0 0.0
2018-Feb-18 07:01N 41°22' E 002°11'0 0.0
2018-Feb-18 06:31N 41°22' E 002°11'0 0.0
2018-Feb-18 06:01N 41°22' E 002°11'0 0.0
2018-Feb-18 05:30N 41°22' E 002°11'0 0.0
2018-Feb-18 05:01N 41°22' E 002°11'0 0.0
2018-Feb-18 04:31N 41°22' E 002°11'0 0.0
2018-Feb-18 04:01N 41°22' E 002°11'0 0.0
2018-Feb-18 03:30N 41°22' E 002°11'0 0.0
2018-Feb-18 03:01N 41°22' E 002°11'0 0.0
2018-Feb-18 02:31N 41°22' E 002°11'0 0.0
2018-Feb-18 02:01N 41°22' E 002°11'0 0.0
2018-Feb-18 01:30N 41°22' E 002°11'0 0.0
2018-Feb-18 01:01N 41°22' E 002°11'0 0.0
2018-Feb-18 00:30N 41°22' E 002°11'0 0.0
2018-Feb-18 00:01N 41°22' E 002°11'0 0.0
2018-Feb-17 23:31N 41°22' E 002°11'0 0.0
2018-Feb-17 23:01N 41°22' E 002°11'0 0.0
2018-Feb-17 22:30N 41°22' E 002°11'0 0.0
2018-Feb-17 22:01N 41°22' E 002°11'0 0.0
2018-Feb-17 21:30N 41°22' E 002°11'0 0.0
2018-Feb-17 21:01N 41°22' E 002°11'0 0.0
2018-Feb-17 20:31N 41°22' E 002°11'0 0.0
2018-Feb-17 20:01N 41°22' E 002°11'0 0.0
2018-Feb-17 19:30N 41°22' E 002°11'0 0.0
2018-Feb-17 19:01N 41°22' E 002°11'0 0.0
2018-Feb-17 18:31N 41°22' E 002°11'0 0.0
2018-Feb-17 18:00N 41°22' E 002°11'0 0.0
2018-Feb-17 17:31N 41°22' E 002°11'0 0.0
2018-Feb-17 17:01N 41°22' E 002°11'0 0.0
2018-Feb-17 16:31N 41°22' E 002°11'0 0.0
2018-Feb-17 16:01N 41°22' E 002°11'0 0.0
2018-Feb-17 15:30N 41°22' E 002°11'0 0.0
2018-Feb-17 15:01N 41°22' E 002°11'0 0.0
2018-Feb-17 14:31N 41°22' E 002°11'0 0.0
2018-Feb-17 14:01N 41°22' E 002°11'0 0.0
2018-Feb-17 13:31N 41°22' E 002°11'0 0.0
2018-Feb-17 13:00N 41°22' E 002°11'0 0.0
2018-Feb-17 12:30N 41°22' E 002°11'0 0.0
2018-Feb-17 12:00N 41°22' E 002°11'0 0.0
2018-Feb-17 11:30N 41°22' E 002°11'0 0.0
2018-Feb-17 11:01N 41°22' E 002°11'0 0.0
2018-Feb-17 10:31N 41°22' E 002°11'0 0.0
2018-Feb-17 10:01N 41°22' E 002°11'0 0.0
2018-Feb-17 09:30N 41°22' E 002°11'0 0.0
2018-Feb-17 09:01N 41°22' E 002°11'0 0.0
2018-Feb-17 08:31N 41°22' E 002°11'0 0.0
2018-Feb-17 03:30N 41°22' E 002°11'0 0.0
2018-Feb-17 03:01N 41°22' E 002°11'0 0.0
2018-Feb-17 02:31N 41°22' E 002°11'0 0.0
2018-Feb-17 02:01N 41°22' E 002°11'0 0.0
2018-Feb-17 01:31N 41°22' E 002°11'0 0.0
2018-Feb-17 01:01N 41°22' E 002°11'0 0.0
2018-Feb-17 00:31N 41°22' E 002°11'0 0.0
2018-Feb-17 00:01N 41°22' E 002°11'0 0.0
2018-Feb-16 23:31N 41°22' E 002°11'0 0.0
2018-Feb-16 23:01N 41°22' E 002°11'0 0.0
2018-Feb-16 22:31N 41°22' E 002°11'0 0.0
2018-Feb-16 22:01N 41°22' E 002°11'0 0.0
2018-Feb-16 21:31N 41°22' E 002°11'0 0.0
2018-Feb-16 21:01N 41°22' E 002°11'0 0.0
2018-Feb-16 20:31N 41°22' E 002°11'0 0.0
2018-Feb-16 20:00N 41°22' E 002°11'0 0.0
2018-Feb-16 19:30N 41°22' E 002°11'0 0.0
2018-Feb-16 19:00N 41°22' E 002°11'0 0.0
2018-Feb-16 18:31N 41°22' E 002°11'0 0.0
2018-Feb-16 18:01N 41°22' E 002°11'0 0.0
2018-Feb-16 17:31N 41°22' E 002°11'0 0.3
2018-Feb-16 17:01N 41°22' E 002°11'0 0.0
2018-Feb-16 16:31N 41°22' E 002°11'0 0.0
2018-Feb-16 16:01N 41°22' E 002°11'0 0.0
2018-Feb-16 15:31N 41°22' E 002°11'0 0.0
2018-Feb-16 15:00N 41°22' E 002°11'0 0.0
2018-Feb-16 14:30N 41°22' E 002°11'0 0.0
2018-Feb-16 14:01N 41°22' E 002°11'0 0.0
2018-Feb-16 13:30N 41°22' E 002°11'0 0.0
2018-Feb-16 13:00N 41°22' E 002°11'0 0.0
2018-Feb-16 12:30N 41°22' E 002°11'0 0.0
2018-Feb-16 12:01N 41°22' E 002°11'0 0.0
2018-Feb-16 11:30N 41°22' E 002°11'0 0.0
2018-Feb-16 11:01N 41°22' E 002°11'0 0.0
2018-Feb-16 10:31N 41°22' E 002°11'0 0.0
2018-Feb-16 10:00N 41°22' E 002°11'0 0.0
2018-Feb-16 09:31N 41°22' E 002°11'0 0.0
2018-Feb-16 09:00N 41°22' E 002°11'0 0.0
2018-Feb-16 08:31N 41°22' E 002°11'0 0.0
2018-Feb-16 08:01N 41°22' E 002°11'0 0.0
2018-Feb-16 07:31N 41°22' E 002°11'0 0.0
2018-Feb-16 07:01N 41°22' E 002°11'0 0.0
2018-Feb-16 06:31N 41°22' E 002°11'0 0.0
2018-Feb-16 06:01N 41°22' E 002°11'0 0.0
2018-Feb-16 05:30N 41°22' E 002°11'0 0.0
2018-Feb-16 05:01N 41°22' E 002°11'0 0.0
2018-Feb-16 04:31N 41°22' E 002°11'0 0.0
2018-Feb-16 04:01N 41°22' E 002°11'0 0.0
2018-Feb-16 03:31N 41°22' E 002°11'0 0.0
2018-Feb-16 03:01N 41°22' E 002°11'0 0.0
2018-Feb-16 02:31N 41°22' E 002°11'0 0.0
2018-Feb-16 02:01N 41°22' E 002°11'0 0.0
2018-Feb-16 01:31N 41°22' E 002°11'0 0.0
2018-Feb-16 01:00N 41°22' E 002°11'0 0.0
2018-Feb-16 00:31N 41°22' E 002°11'0 0.0
2018-Feb-16 00:01N 41°22' E 002°11'0 0.0
2018-Feb-15 23:31N 41°22' E 002°11'0 0.0
2018-Feb-15 23:01N 41°22' E 002°11'0 0.0
2018-Feb-15 22:31N 41°22' E 002°11'0 0.0
2018-Feb-15 22:01N 41°22' E 002°11'0 0.0
2018-Feb-15 21:31N 41°22' E 002°11'0 0.0
2018-Feb-15 21:00N 41°22' E 002°11'0 0.0
2018-Feb-15 20:30N 41°22' E 002°11'0 0.0
2018-Feb-15 20:01N 41°22' E 002°11'0 0.0
2018-Feb-15 19:31N 41°22' E 002°11'0 0.0
2018-Feb-15 19:01N 41°22' E 002°11'0 0.0
2018-Feb-15 18:31N 41°22' E 002°11'0 0.0
2018-Feb-15 18:00N 41°22' E 002°11'0 0.0
2018-Feb-15 17:31N 41°22' E 002°11'0 0.0
2018-Feb-15 17:01N 41°22' E 002°11'0 0.0
2018-Feb-15 16:30N 41°22' E 002°11'0 0.0
2018-Feb-15 16:01N 41°22' E 002°11'0 0.0
2018-Feb-15 15:31N 41°22' E 002°11'3 5.0
2018-Feb-15 15:00N 41°20' E 002°13'1020.7
2018-Feb-15 14:31N 41°10' E 002°14'10020.9
2018-Feb-15 09:43N 39°30' E 002°23'621.2
2018-Feb-15 09:27N 39°27' E 002°28'919.1
2018-Feb-15 09:00N 39°32' E 002°37'1 2.4
2018-Feb-15 08:28N 39°33' E 002°38'0 0.0
2018-Feb-15 07:58N 39°33' E 002°38'0 0.0
2018-Feb-15 07:28N 39°33' E 002°38'0 0.0
2018-Feb-15 07:00N 39°33' E 002°38'0 0.0
2018-Feb-15 06:24N 39°33' E 002°38'0 0.0
2018-Feb-15 06:00N 39°33' E 002°38'0 0.0
2018-Feb-15 05:30N 39°33' E 002°38'0 0.0
2018-Feb-15 05:00N 39°33' E 002°38'1 2.8
2018-Feb-15 04:30N 39°31' E 002°37'918.7
2018-Feb-15 04:00N 39°26' E 002°28'11920.6
2018-Feb-14 22:13N 39°26' W 000°06'520.6
2018-Feb-14 21:58N 39°26' W 000°13'511.1
2018-Feb-14 21:30N 39°27' W 000°19'0 0.1
2018-Feb-14 20:58N 39°27' W 000°20'0 0.0
2018-Feb-14 20:30N 39°27' W 000°20'0 0.0
2018-Feb-14 20:00N 39°27' W 000°20'0 0.0
2018-Feb-14 19:30N 39°27' W 000°20'0 0.0
2018-Feb-14 18:59N 39°27' W 000°20'0 0.0
2018-Feb-14 18:29N 39°27' W 000°20'0 1.0
2018-Feb-14 18:01N 39°27' W 000°19'714.5
2018-Feb-14 17:30N 39°25' W 000°09'11419.9
2018-Feb-14 11:46N 39°26' E 002°19'520.0
2018-Feb-14 11:30N 39°26' E 002°25'918.1
2018-Feb-14 11:00N 39°30' E 002°36'3 6.1
2018-Feb-14 10:30N 39°33' E 002°38'0 0.0
2018-Feb-14 10:00N 39°33' E 002°38'0 0.0
2018-Feb-14 09:30N 39°33' E 002°38'0 0.0
2018-Feb-14 08:59N 39°33' E 002°38'0 0.0
2018-Feb-14 08:29N 39°33' E 002°38'0 0.0
2018-Feb-14 07:59N 39°33' E 002°38'0 0.0
2018-Feb-14 07:28N 39°33' E 002°38'0 0.0
2018-Feb-14 06:58N 39°33' E 002°38'0 0.0
2018-Feb-14 06:28N 39°33' E 002°38'0 0.0
2018-Feb-14 06:00N 39°33' E 002°38'0 0.0
2018-Feb-14 05:30N 39°33' E 002°38'1 2.8
2018-Feb-14 05:00N 39°31' E 002°38'917.9
2018-Feb-14 04:30N 39°26' E 002°28'9418.5
2018-Feb-13 23:25N 40°59' E 002°12'819.7
2018-Feb-13 23:00N 41°08' E 002°11'1019.5
2018-Feb-13 22:30N 41°17' E 002°11'4 7.5
2018-Feb-13 22:01N 41°21' E 002°10'0 0.1
2018-Feb-13 21:28N 41°21' E 002°10'0 0.0
2018-Feb-13 20:58N 41°21' E 002°10'0 0.0
2018-Feb-13 20:28N 41°21' E 002°10'  
Track history (hours):
 
Tides and Currents Weather Stations Pressure Air Temp Water Temp Dewpoint Dewpoint Depression Visibility Wind Speed Wind Dir Waves Ship Positions

Abel Matutes

Last reported at 2018-Feb-23 20:25 UTC. Time now 2018-Feb-23 20:43 UTC.
Position N 41°21' E 002°10'.

Length 190 m; draft 5.5 m.

Type: Passenger vessel. MMSI: 224402000.

Date/timePositionNaut miles runAvg speedWind from/ knotsBaromVisibWave heightAir tempDewpointWater temp
2018-Feb-23 20:25N 41°21' E 002°10'0 0.0
2018-Feb-23 20:00N 41°21' E 002°10'0 0.0
2018-Feb-23 19:29N 41°21' E 002°10'0 0.0
2018-Feb-23 19:00N 41°21' E 002°10'1 2.8
2018-Feb-23 18:31N 41°20' E 002°10'4 7.7
2018-Feb-23 18:00N 41°16' E 002°11'1019.5
2018-Feb-23 17:30N 41°06' E 002°12'9619.7
2018-Feb-23 12:36N 39°30' E 002°22'320.1
2018-Feb-23 12:28N 39°28' E 002°24'816.4
2018-Feb-23 11:59N 39°28' E 002°35'510.0
2018-Feb-23 11:30N 39°33' E 002°38'0 0.0
2018-Feb-23 10:59N 39°33' E 002°38'0 0.0
2018-Feb-23 10:30N 39°33' E 002°38'0 0.0
2018-Feb-23 10:00N 39°33' E 002°38'0 0.0
2018-Feb-23 09:30N 39°33' E 002°38'0 0.0
2018-Feb-23 08:59N 39°33' E 002°38'0 0.0
2018-Feb-23 08:26N 39°33' E 002°38'0 0.0
2018-Feb-23 07:59N 39°33' E 002°38'0 0.0
2018-Feb-23 07:28N 39°33' E 002°38'0 0.0
2018-Feb-23 06:55N 39°33' E 002°38'0 0.0
2018-Feb-23 06:28N 39°33' E 002°38'0 0.0
2018-Feb-23 06:00N 39°33' E 002°38'0 0.0
2018-Feb-23 05:30N 39°33' E 002°38'1 2.5
2018-Feb-23 05:00N 39°31' E 002°38'917.3
2018-Feb-23 04:29N 39°26' E 002°29'9518.6
2018-Feb-22 23:22N 40°60' E 002°12'719.9
2018-Feb-22 23:00N 41°07' E 002°12'1020.3
2018-Feb-22 22:30N 41°17' E 002°11'4 8.1
2018-Feb-22 22:00N 41°21' E 002°10'0 0.1
2018-Feb-22 21:29N 41°21' E 002°10'0 0.0
2018-Feb-22 20:58N 41°21' E 002°10'0 0.0
2018-Feb-22 20:28N 41°21' E 002°10'0 0.0
2018-Feb-22 19:58N 41°21' E 002°10'0 0.0
2018-Feb-22 19:30N 41°21' E 002°10'0 0.0
2018-Feb-22 19:00N 41°21' E 002°10'2 3.5
2018-Feb-22 18:30N 41°19' E 002°10'4 7.5
2018-Feb-22 18:00N 41°16' E 002°11'917.8
2018-Feb-22 17:30N 41°07' E 002°11'9919.6
2018-Feb-22 12:28N 39°28' E 002°25'816.7
2018-Feb-22 11:58N 39°29' E 002°35'4 7.7
2018-Feb-22 11:29N 39°33' E 002°38'0 0.0
2018-Feb-22 10:59N 39°33' E 002°38'0 0.0
2018-Feb-22 10:29N 39°33' E 002°38'0 0.0
2018-Feb-22 09:59N 39°33' E 002°38'0 0.0
2018-Feb-22 09:28N 39°33' E 002°38'0 0.0
2018-Feb-22 08:58N 39°33' E 002°38'0 0.0
2018-Feb-22 08:28N 39°33' E 002°38'0 0.0
2018-Feb-22 08:00N 39°33' E 002°38'0 0.0
2018-Feb-22 07:30N 39°33' E 002°38'0 0.0
2018-Feb-22 07:00N 39°33' E 002°38'0 0.0
2018-Feb-22 06:29N 39°33' E 002°38'0 0.0
2018-Feb-22 05:59N 39°33' E 002°38'0 0.0
2018-Feb-22 05:30N 39°33' E 002°38'1 1.8
2018-Feb-22 05:00N 39°33' E 002°39'1019.3
2018-Feb-22 04:30N 39°26' E 002°30'9419.1
2018-Feb-21 23:33N 40°59' E 002°12'219.1
2018-Feb-21 23:27N 41°01' E 002°12'919.4
2018-Feb-21 23:00N 41°10' E 002°11'918.5
2018-Feb-21 22:30N 41°19' E 002°10'2 3.5
2018-Feb-21 21:59N 41°21' E 002°10'0 0.0
2018-Feb-21 21:28N 41°21' E 002°10'0 0.0
2018-Feb-21 20:58N 41°21' E 002°10'0 0.0
2018-Feb-21 20:28N 41°21' E 002°10'0 0.0
2018-Feb-21 20:00N 41°21' E 002°10'0 0.0
2018-Feb-21 19:30N 41°21' E 002°10'1 1.4
2018-Feb-21 19:00N 41°20' E 002°10'613.1
2018-Feb-21 18:30N 41°14' E 002°12'1018.9
2018-Feb-21 18:00N 41°04' E 002°12'9617.8
2018-Feb-21 12:35N 39°29' E 002°23'220.9
2018-Feb-21 12:30N 39°28' E 002°25'917.4
2018-Feb-21 12:00N 39°30' E 002°36'3 5.7
2018-Feb-21 11:30N 39°33' E 002°38'0 0.0
2018-Feb-21 10:56N 39°33' E 002°38'0 0.0
2018-Feb-21 10:29N 39°33' E 002°38'0 0.0
2018-Feb-21 09:59N 39°33' E 002°38'0 0.0
2018-Feb-21 09:29N 39°33' E 002°38'0 0.0
2018-Feb-21 08:58N 39°33' E 002°38'0 0.0
2018-Feb-21 08:28N 39°33' E 002°38'0 0.0
2018-Feb-21 07:58N 39°33' E 002°38'0 0.0
2018-Feb-21 07:30N 39°33' E 002°38'0 0.0
2018-Feb-21 07:00N 39°33' E 002°38'0 0.0
2018-Feb-21 06:30N 39°33' E 002°38'0 0.0
2018-Feb-21 05:59N 39°33' E 002°38'0 0.0
2018-Feb-21 05:30N 39°33' E 002°38'1 2.1
2018-Feb-21 05:00N 39°32' E 002°38'917.6
2018-Feb-21 04:30N 39°26' E 002°30'9518.5
2018-Feb-20 23:21N 41°00' E 002°12'719.2
2018-Feb-20 23:00N 41°07' E 002°12'1019.7
2018-Feb-20 22:30N 41°17' E 002°11'4 8.5
2018-Feb-20 22:00N 41°21' E 002°10'0 0.5
2018-Feb-20 21:30N 41°21' E 002°10'0 0.0
2018-Feb-20 21:00N 41°21' E 002°10'0 0.0
2018-Feb-20 20:29N 41°21' E 002°10'0 0.0
2018-Feb-20 19:59N 41°21' E 002°10'0 0.0
2018-Feb-20 19:29N 41°21' E 002°10'0 0.0
2018-Feb-20 18:58N 41°21' E 002°10'0 0.1
2018-Feb-20 18:31N 41°21' E 002°10'4 8.6
2018-Feb-20 18:01N 41°17' E 002°11'1220.7
2018-Feb-20 17:27N 41°05' E 002°12'9620.0
2018-Feb-20 12:38N 39°29' E 002°23'219.6
2018-Feb-20 12:30N 39°28' E 002°26'815.7
2018-Feb-20 11:59N 39°29' E 002°36'4 7.5
2018-Feb-20 11:30N 39°33' E 002°38'0 0.0
2018-Feb-20 10:55N 39°33' E 002°38'0 0.0
2018-Feb-20 10:30N 39°33' E 002°38'0 0.0
2018-Feb-20 10:00N 39°33' E 002°38'0 0.0
2018-Feb-20 09:30N 39°33' E 002°38'0 0.0
2018-Feb-20 08:59N 39°33' E 002°38'0 0.0
2018-Feb-20 08:29N 39°33' E 002°38'0 0.0
2018-Feb-20 07:59N 39°33' E 002°38'0 0.0
2018-Feb-20 07:28N 39°33' E 002°38'0 0.0
2018-Feb-20 07:00N 39°33' E 002°38'0 0.0
2018-Feb-20 06:28N 39°33' E 002°38'0 0.0
2018-Feb-20 05:58N 39°33' E 002°38'0 0.0
2018-Feb-20 05:30N 39°33' E 002°38'2 3.1
2018-Feb-20 05:00N 39°31' E 002°38'917.6
2018-Feb-20 04:30N 39°26' E 002°29'9818.7
2018-Feb-19 23:14N 41°03' E 002°12'420.0
2018-Feb-19 23:00N 41°08' E 002°12'1020.1
2018-Feb-19 22:30N 41°18' E 002°10'3 6.1
2018-Feb-19 21:58N 41°21' E 002°10'0 0.0
2018-Feb-19 21:23N 41°21' E 002°10'0 0.0
2018-Feb-19 20:59N 41°21' E 002°10'0 0.0
2018-Feb-19 20:29N 41°21' E 002°10'0 0.0
2018-Feb-19 19:58N 41°21' E 002°10'0 0.0
2018-Feb-19 19:28N 41°21' E 002°10'0 0.0
2018-Feb-19 19:00N 41°21' E 002°10'0 0.0
2018-Feb-19 18:29N 41°21' E 002°10'0 0.0
2018-Feb-19 17:47N 41°21' E 002°10'0 0.0
2018-Feb-19 17:20N 41°21' E 002°10'0 0.0
2018-Feb-19 16:53N 41°21' E 002°10'2 5.5
2018-Feb-19 16:30N 41°19' E 002°11'3 5.9
2018-Feb-19 15:58N 41°22' E 002°11'0 0.1
2018-Feb-19 15:28N 41°22' E 002°11'0 0.0
2018-Feb-19 15:00N 41°22' E 002°11'0 0.0
2018-Feb-19 14:30N 41°22' E 002°11'0 0.0
2018-Feb-19 14:00N 41°22' E 002°11'0 0.0
2018-Feb-19 13:29N 41°22' E 002°11'0 0.0
2018-Feb-19 12:59N 41°22' E 002°11'0 0.0
2018-Feb-19 12:23N 41°22' E 002°11'0 0.1
2018-Feb-19 10:36N 41°22' E 002°11'0 0.0
2018-Feb-19 10:30N 41°22' E 002°11'0 0.0
2018-Feb-19 10:01N 41°22' E 002°11'0 0.0
2018-Feb-19 09:31N 41°22' E 002°11'0 0.0
2018-Feb-19 09:01N 41°22' E 002°11'0 0.0
2018-Feb-19 01:54N 41°22' E 002°11'0 0.0
2018-Feb-19 01:31N 41°22' E 002°11'0 0.0
2018-Feb-19 01:01N 41°22' E 002°11'0 0.0
2018-Feb-19 00:31N 41°22' E 002°11'0 0.0
2018-Feb-19 00:01N 41°22' E 002°11'0 0.0
2018-Feb-18 23:31N 41°22' E 002°11'0 0.0
2018-Feb-18 23:00N 41°22' E 002°11'0 0.0
2018-Feb-18 22:31N 41°22' E 002°11'0 0.0
2018-Feb-18 22:00N 41°22' E 002°11'0 0.0
2018-Feb-18 21:31N 41°22' E 002°11'0 0.0
2018-Feb-18 21:01N 41°22' E 002°11'0 0.0
2018-Feb-18 20:31N 41°22' E 002°11'0 0.0
2018-Feb-18 20:01N 41°22' E 002°11'0 0.0
2018-Feb-18 19:31N 41°22' E 002°11'0 0.0
2018-Feb-18 19:01N 41°22' E 002°11'0 0.0
2018-Feb-18 18:31N 41°22' E 002°11'0 0.0
2018-Feb-18 18:01N 41°22' E 002°11'0 0.0
2018-Feb-18 17:31N 41°22' E 002°11'0 0.0
2018-Feb-18 17:01N 41°22' E 002°11'0 0.0
2018-Feb-18 16:31N 41°22' E 002°11'0 0.0
2018-Feb-18 16:01N 41°22' E 002°11'0 0.0
2018-Feb-18 15:30N 41°22' E 002°11'0 0.0
2018-Feb-18 15:01N 41°22' E 002°11'0 0.0
2018-Feb-18 14:31N 41°22' E 002°11'0 0.0
2018-Feb-18 14:01N 41°22' E 002°11'0 0.0
2018-Feb-18 13:30N 41°22' E 002°11'0 0.0
2018-Feb-18 13:01N 41°22' E 002°11'0 0.0
2018-Feb-18 12:30N 41°22' E 002°11'0 0.0
2018-Feb-18 12:01N 41°22' E 002°11'0 0.0
2018-Feb-18 11:30N 41°22' E 002°11'0 0.0
2018-Feb-18 11:01N 41°22' E 002°11'0 0.0
2018-Feb-18 10:30N 41°22' E 002°11'0 0.0
2018-Feb-18 10:01N 41°22' E 002°11'0 0.0
2018-Feb-18 09:31N 41°22' E 002°11'0 0.0
2018-Feb-18 09:01N 41°22' E 002°11'0 0.0
2018-Feb-18 08:30N 41°22' E 002°11'0 0.0
2018-Feb-18 08:01N 41°22' E 002°11'0 0.0
2018-Feb-18 07:30N 41°22' E 002°11'0 0.0
2018-Feb-18 07:01N 41°22' E 002°11'0 0.0
2018-Feb-18 06:31N 41°22' E 002°11'0 0.0
2018-Feb-18 06:01N 41°22' E 002°11'0 0.0
2018-Feb-18 05:30N 41°22' E 002°11'0 0.0
2018-Feb-18 05:01N 41°22' E 002°11'0 0.0
2018-Feb-18 04:31N 41°22' E 002°11'0 0.0
2018-Feb-18 04:01N 41°22' E 002°11'0 0.0
2018-Feb-18 03:30N 41°22' E 002°11'0 0.0
2018-Feb-18 03:01N 41°22' E 002°11'0 0.0
2018-Feb-18 02:31N 41°22' E 002°11'0 0.0
2018-Feb-18 02:01N 41°22' E 002°11'0 0.0
2018-Feb-18 01:30N 41°22' E 002°11'0 0.0
2018-Feb-18 01:01N 41°22' E 002°11'0 0.0
2018-Feb-18 00:30N 41°22' E 002°11'0 0.0
2018-Feb-18 00:01N 41°22' E 002°11'0 0.0
2018-Feb-17 23:31N 41°22' E 002°11'0 0.0
2018-Feb-17 23:01N 41°22' E 002°11'0 0.0
2018-Feb-17 22:30N 41°22' E 002°11'0 0.0
2018-Feb-17 22:01N 41°22' E 002°11'0 0.0
2018-Feb-17 21:30N 41°22' E 002°11'0 0.0
2018-Feb-17 21:01N 41°22' E 002°11'0 0.0
2018-Feb-17 20:31N 41°22' E 002°11'0 0.0
2018-Feb-17 20:01N 41°22' E 002°11'0 0.0
2018-Feb-17 19:30N 41°22' E 002°11'0 0.0
2018-Feb-17 19:01N 41°22' E 002°11'0 0.0
2018-Feb-17 18:31N 41°22' E 002°11'0 0.0
2018-Feb-17 18:00N 41°22' E 002°11'0 0.0
2018-Feb-17 17:31N 41°22' E 002°11'0 0.0
2018-Feb-17 17:01N 41°22' E 002°11'0 0.0
2018-Feb-17 16:31N 41°22' E 002°11'0 0.0
2018-Feb-17 16:01N 41°22' E 002°11'0 0.0
2018-Feb-17 15:30N 41°22' E 002°11'0 0.0
2018-Feb-17 15:01N 41°22' E 002°11'0 0.0
2018-Feb-17 14:31N 41°22' E 002°11'0 0.0
2018-Feb-17 14:01N 41°22' E 002°11'0 0.0
2018-Feb-17 13:31N 41°22' E 002°11'0 0.0
2018-Feb-17 13:00N 41°22' E 002°11'0 0.0
2018-Feb-17 12:30N 41°22' E 002°11'0 0.0
2018-Feb-17 12:00N 41°22' E 002°11'0 0.0
2018-Feb-17 11:30N 41°22' E 002°11'0 0.0
2018-Feb-17 11:01N 41°22' E 002°11'0 0.0
2018-Feb-17 10:31N 41°22' E 002°11'0 0.0
2018-Feb-17 10:01N 41°22' E 002°11'0 0.0
2018-Feb-17 09:30N 41°22' E 002°11'0 0.0
2018-Feb-17 09:01N 41°22' E 002°11'0 0.0
2018-Feb-17 08:31N 41°22' E 002°11'0 0.0
2018-Feb-17 03:30N 41°22' E 002°11'0 0.0
2018-Feb-17 03:01N 41°22' E 002°11'0 0.0
2018-Feb-17 02:31N 41°22' E 002°11'0 0.0
2018-Feb-17 02:01N 41°22' E 002°11'0 0.0
2018-Feb-17 01:31N 41°22' E 002°11'0 0.0
2018-Feb-17 01:01N 41°22' E 002°11'0 0.0
2018-Feb-17 00:31N 41°22' E 002°11'0 0.0
2018-Feb-17 00:01N 41°22' E 002°11'0 0.0
2018-Feb-16 23:31N 41°22' E 002°11'0 0.0
2018-Feb-16 23:01N 41°22' E 002°11'0 0.0
2018-Feb-16 22:31N 41°22' E 002°11'0 0.0
2018-Feb-16 22:01N 41°22' E 002°11'0 0.0
2018-Feb-16 21:31N 41°22' E 002°11'0 0.0
2018-Feb-16 21:01N 41°22' E 002°11'0 0.0
2018-Feb-16 20:31N 41°22' E 002°11'0 0.0
2018-Feb-16 20:00N 41°22' E 002°11'0 0.0
2018-Feb-16 19:30N 41°22' E 002°11'0 0.0
2018-Feb-16 19:00N 41°22' E 002°11'0 0.0
2018-Feb-16 18:31N 41°22' E 002°11'0 0.0
2018-Feb-16 18:01N 41°22' E 002°11'0 0.0
2018-Feb-16 17:31N 41°22' E 002°11'0 0.3
2018-Feb-16 17:01N 41°22' E 002°11'0 0.0
2018-Feb-16 16:31N 41°22' E 002°11'0 0.0
2018-Feb-16 16:01N 41°22' E 002°11'0 0.0
2018-Feb-16 15:31N 41°22' E 002°11'0 0.0
2018-Feb-16 15:00N 41°22' E 002°11'0 0.0
2018-Feb-16 14:30N 41°22' E 002°11'0 0.0
2018-Feb-16 14:01N 41°22' E 002°11'0 0.0
2018-Feb-16 13:30N 41°22' E 002°11'0 0.0
2018-Feb-16 13:00N 41°22' E 002°11'0 0.0
2018-Feb-16 12:30N 41°22' E 002°11'0 0.0
2018-Feb-16 12:01N 41°22' E 002°11'0 0.0
2018-Feb-16 11:30N 41°22' E 002°11'0 0.0
2018-Feb-16 11:01N 41°22' E 002°11'0 0.0
2018-Feb-16 10:31N 41°22' E 002°11'0 0.0
2018-Feb-16 10:00N 41°22' E 002°11'0 0.0
2018-Feb-16 09:31N 41°22' E 002°11'0 0.0
2018-Feb-16 09:00N 41°22' E 002°11'0 0.0
2018-Feb-16 08:31N 41°22' E 002°11'0 0.0
2018-Feb-16 08:01N 41°22' E 002°11'0 0.0
2018-Feb-16 07:31N 41°22' E 002°11'0 0.0
2018-Feb-16 07:01N 41°22' E 002°11'0 0.0
2018-Feb-16 06:31N 41°22' E 002°11'0 0.0
2018-Feb-16 06:01N 41°22' E 002°11'0 0.0
2018-Feb-16 05:30N 41°22' E 002°11'0 0.0
2018-Feb-16 05:01N 41°22' E 002°11'0 0.0
2018-Feb-16 04:31N 41°22' E 002°11'0 0.0
2018-Feb-16 04:01N 41°22' E 002°11'0 0.0
2018-Feb-16 03:31N 41°22' E 002°11'0 0.0
2018-Feb-16 03:01N 41°22' E 002°11'0 0.0
2018-Feb-16 02:31N 41°22' E 002°11'0 0.0
2018-Feb-16 02:01N 41°22' E 002°11'0 0.0
2018-Feb-16 01:31N 41°22' E 002°11'0 0.0
2018-Feb-16 01:00N 41°22' E 002°11'0 0.0
2018-Feb-16 00:31N 41°22' E 002°11'0 0.0
2018-Feb-16 00:01N 41°22' E 002°11'0 0.0
2018-Feb-15 23:31N 41°22' E 002°11'0 0.0
2018-Feb-15 23:01N 41°22' E 002°11'0 0.0
2018-Feb-15 22:31N 41°22' E 002°11'0 0.0
2018-Feb-15 22:01N 41°22' E 002°11'0 0.0
2018-Feb-15 21:31N 41°22' E 002°11'0 0.0
2018-Feb-15 21:00N 41°22' E 002°11'0 0.0
2018-Feb-15 20:30N 41°22' E 002°11'0 0.0
2018-Feb-15 20:01N 41°22' E 002°11'0 0.0
2018-Feb-15 19:31N 41°22' E 002°11'0 0.0
2018-Feb-15 19:01N 41°22' E 002°11'0 0.0
2018-Feb-15 18:31N 41°22' E 002°11'0 0.0
2018-Feb-15 18:00N 41°22' E 002°11'0 0.0
2018-Feb-15 17:31N 41°22' E 002°11'0 0.0
2018-Feb-15 17:01N 41°22' E 002°11'0 0.0
2018-Feb-15 16:30N 41°22' E 002°11'0 0.0
2018-Feb-15 16:01N 41°22' E 002°11'0 0.0
2018-Feb-15 15:31N 41°22' E 002°11'3 5.0
2018-Feb-15 15:00N 41°20' E 002°13'1020.7
2018-Feb-15 14:31N 41°10' E 002°14'10020.9
2018-Feb-15 09:43N 39°30' E 002°23'621.2
2018-Feb-15 09:27N 39°27' E 002°28'919.1
2018-Feb-15 09:00N 39°32' E 002°37'1 2.4
2018-Feb-15 08:28N 39°33' E 002°38'0 0.0
2018-Feb-15 07:58N 39°33' E 002°38'0 0.0
2018-Feb-15 07:28N 39°33' E 002°38'0 0.0
2018-Feb-15 07:00N 39°33' E 002°38'0 0.0
2018-Feb-15 06:24N 39°33' E 002°38'0 0.0
2018-Feb-15 06:00N 39°33' E 002°38'0 0.0
2018-Feb-15 05:30N 39°33' E 002°38'0 0.0
2018-Feb-15 05:00N 39°33' E 002°38'1 2.8
2018-Feb-15 04:30N 39°31' E 002°37'918.7
2018-Feb-15 04:00N 39°26' E 002°28'11920.6
2018-Feb-14 22:13N 39°26' W 000°06'520.6
2018-Feb-14 21:58N 39°26' W 000°13'511.1
2018-Feb-14 21:30N 39°27' W 000°19'0 0.1
2018-Feb-14 20:58N 39°27' W 000°20'0 0.0
2018-Feb-14 20:30N 39°27' W 000°20'0 0.0
2018-Feb-14 20:00N 39°27' W 000°20'0 0.0
2018-Feb-14 19:30N 39°27' W 000°20'0 0.0
2018-Feb-14 18:59N 39°27' W 000°20'0 0.0
2018-Feb-14 18:29N 39°27' W 000°20'0 1.0
2018-Feb-14 18:01N 39°27' W 000°19'714.5
2018-Feb-14 17:30N 39°25' W 000°09'11419.9
2018-Feb-14 11:46N 39°26' E 002°19'520.0
2018-Feb-14 11:30N 39°26' E 002°25'918.1
2018-Feb-14 11:00N 39°30' E 002°36'3 6.1
2018-Feb-14 10:30N 39°33' E 002°38'0 0.0
2018-Feb-14 10:00N 39°33' E 002°38'0 0.0
2018-Feb-14 09:30N 39°33' E 002°38'0 0.0
2018-Feb-14 08:59N 39°33' E 002°38'0 0.0
2018-Feb-14 08:29N 39°33' E 002°38'0 0.0
2018-Feb-14 07:59N 39°33' E 002°38'0 0.0
2018-Feb-14 07:28N 39°33' E 002°38'0 0.0
2018-Feb-14 06:58N 39°33' E 002°38'0 0.0
2018-Feb-14 06:28N 39°33' E 002°38'0 0.0
2018-Feb-14 06:00N 39°33' E 002°38'0 0.0
2018-Feb-14 05:30N 39°33' E 002°38'1 2.8
2018-Feb-14 05:00N 39°31' E 002°38'917.9
2018-Feb-14 04:30N 39°26' E 002°28'9418.5
2018-Feb-13 23:25N 40°59' E 002°12'819.7
2018-Feb-13 23:00N 41°08' E 002°11'1019.5
2018-Feb-13 22:30N 41°17' E 002°11'4 7.5
2018-Feb-13 22:01N 41°21' E 002°10'0 0.1
2018-Feb-13 21:28N 41°21' E 002°10'0 0.0
2018-Feb-13 20:58N 41°21' E 002°10'0 0.0
2018-Feb-13 20:28N 41°21' E 002°10'  

Dump ship's entire track history